Time;durP1;ratioP1;P1;durP2;ratioP2;P2;SDS_P1;SDS_P2;PMS_P1;PMS_P2;Temp;Humidity;BMP_temperature;BMP_pressure;BME280_temperature;BME280_humidity;BME280_pressure;Samples;Min_cycle;Max_cycle;Signal;HPM_P1;HPM_P2
2023/11/13 00:02:00;;;;;;;0.20;0.20;;;;;;;;;;4948986;28;20047;-84
2023/11/13 00:04:26;;;;;;;0.20;0.10;;;;;;;;;;4926020;29;20963;-83
2023/11/13 00:06:52;;;;;;;0.20;0.20;;;;;;;;;;4930297;28;20054;-83
2023/11/13 00:09:18;;;;;;;0.20;0.10;;;;;;;;;;4940804;28;20246;-83
2023/11/13 00:11:45;;;;;;;0.20;0.10;;;;;;;;;;4925655;29;20571;-82
2023/11/13 00:14:11;;;;;;;0.20;0.10;;;;;;;;;;4930652;29;20039;-83
2023/11/13 00:16:37;;;;;;;0.20;0.20;;;;;;;;;;4939819;28;20079;-84
2023/11/13 00:19:03;;;;;;;0.20;0.10;;;;;;;;;;4920709;28;20050;-84
2023/11/13 00:21:29;;;;;;;0.40;0.32;;;;;;;;;;4941007;28;20039;-83
2023/11/13 00:23:59;;;;;;;0.20;0.03;;;;;;;;;;4919686;28;20051;-83
2023/11/13 00:26:25;;;;;;;0.40;0.40;;;;;;;;;;4935127;28;20076;-82
2023/11/13 00:28:51;;;;;;;0.20;0.10;;;;;;;;;;4939574;28;20114;-83
2023/11/13 00:31:18;;;;;;;0.22;0.13;;;;;;;;;;4929401;29;20043;-83
2023/11/13 00:33:46;;;;;;;0.20;0.03;;;;;;;;;;4927776;29;20043;-83
2023/11/13 00:36:12;;;;;;;1.50;0.52;;;;;;;;;;4940705;28;20150;-83
2023/11/13 00:38:38;;;;;;;0.20;0.00;;;;;;;;;;4940634;28;20126;-83
2023/11/13 00:41:04;;;;;;;0.45;0.45;;;;;;;;;;4926521;28;20079;-84
2023/11/13 00:43:30;;;;;;;0.20;0.10;;;;;;;;;;4931760;29;20047;-85
2023/11/13 00:45:56;;;;;;;0.25;0.22;;;;;;;;;;4926422;28;20039;-84
2023/11/13 00:48:22;;;;;;;0.20;0.15;;;;;;;;;;4927583;29;20771;-84
2023/11/13 00:50:48;;;;;;;0.20;0.08;;;;;;;;;;4924973;29;20139;-84
2023/11/13 00:53:17;;;;;;;0.20;0.10;;;;;;;;;;4920022;29;20047;-84
2023/11/13 00:55:42;;;;;;;0.20;0.10;;;;;;;;;;4944779;28;20118;-84
2023/11/13 00:58:08;;;;;;;0.30;0.30;;;;;;;;;;4943920;28;20039;-84
2023/11/13 01:00:35;;;;;;;0.20;0.10;;;;;;;;;;4932447;29;20040;-83
2023/11/13 01:03:01;;;;;;;0.20;0.10;;;;;;;;;;4942558;28;20047;-84
2023/11/13 01:05:27;;;;;;;0.20;0.10;;;;;;;;;;4929273;29;20040;-84
2023/11/13 01:07:53;;;;;;;0.20;0.10;;;;;;;;;;4926251;28;20090;-84
2023/11/13 01:10:19;;;;;;;0.20;0.00;;;;;;;;;;4932815;29;20419;-84
2023/11/13 01:12:45;;;;;;;0.20;0.10;;;;;;;;;;4942430;28;20514;-84
2023/11/13 01:15:12;;;;;;;0.25;0.22;;;;;;;;;;4928571;28;20043;-84
2023/11/13 01:17:38;;;;;;;2.22;0.35;;;;;;;;;;4938282;28;20039;-85
2023/11/13 01:20:05;;;;;;;0.20;0.00;;;;;;;;;;4941279;28;20116;-84
2023/11/13 01:22:32;;;;;;;0.38;0.13;;;;;;;;;;4926781;29;20378;-83
2023/11/13 01:24:58;;;;;;;0.20;0.00;;;;;;;;;;4930128;28;20039;-84
2023/11/13 01:27:24;;;;;;;0.22;0.20;;;;;;;;;;4938534;28;20074;-83
2023/11/13 01:29:50;;;;;;;0.20;0.10;;;;;;;;;;4928967;28;20512;-84
2023/11/13 01:32:17;;;;;;;0.20;0.20;;;;;;;;;;4920849;28;20090;-84
2023/11/13 01:34:45;;;;;;;0.20;0.10;;;;;;;;;;4927085;29;20051;-85
2023/11/13 01:37:45;;;;;;;0.20;0.10;;;;;;;;;;4941122;28;20097;-85
2023/11/13 01:40:12;;;;;;;0.20;0.00;;;;;;;;;;4921187;28;20058;-85
2023/11/13 01:42:47;;;;;;;0.20;0.20;;;;;;;;;;4931260;29;20051;-85
2023/11/13 01:45:25;;;;;;;0.20;0.00;;;;;;;;;;4940830;28;20122;-85
2023/11/13 01:47:56;;;;;;;0.20;0.10;;;;;;;;;;4919588;29;20253;-85
2023/11/13 01:50:39;;;;;;;0.20;0.10;;;;;;;;;;4925501;29;20051;-85
2023/11/13 01:53:27;;;;;;;0.20;0.10;;;;;;;;;;4937160;28;20055;-86
2023/11/13 01:56:00;;;;;;;0.20;0.10;;;;;;;;;;4942122;28;20500;-85
2023/11/13 01:58:35;;;;;;;0.32;0.32;;;;;;;;;;4921137;29;20098;-85
2023/11/13 02:01:20;;;;;;;0.20;0.10;;;;;;;;;;4924506;28;20404;-85
2023/11/13 02:03:52;;;;;;;0.20;0.10;;;;;;;;;;4927314;29;20039;-85
2023/11/13 02:06:19;;;;;;;0.20;0.05;;;;;;;;;;4925577;28;20431;-84
2023/11/13 02:08:45;;;;;;;0.20;0.08;;;;;;;;;;4927949;29;20056;-83
2023/11/13 02:11:11;;;;;;;0.20;0.10;;;;;;;;;;4930760;28;20138;-85
2023/11/13 02:13:40;;;;;;;0.47;0.38;;;;;;;;;;4940495;28;20107;-84
2023/11/13 02:16:06;;;;;;;0.20;0.10;;;;;;;;;;4925220;28;20488;-84
2023/11/13 02:18:39;;;;;;;0.20;0.10;;;;;;;;;;4923043;29;20069;-84
2023/11/13 02:21:08;;;;;;;0.20;0.10;;;;;;;;;;4924252;28;20047;-85
2023/11/13 02:23:38;;;;;;;0.20;0.05;;;;;;;;;;4937681;28;20044;-85
2023/11/13 02:26:10;;;;;;;0.20;0.10;;;;;;;;;;4925379;28;20052;-84
2023/11/13 02:28:36;;;;;;;0.20;0.10;;;;;;;;;;4938976;28;20036;-84
2023/11/13 02:31:03;;;;;;;0.20;0.05;;;;;;;;;;4927759;28;20046;-84
2023/11/13 02:33:29;;;;;;;0.20;0.08;;;;;;;;;;4924885;29;20039;-84
2023/11/13 02:35:55;;;;;;;0.80;0.20;;;;;;;;;;4928934;29;20039;-84
2023/11/13 02:38:21;;;;;;;0.20;0.17;;;;;;;;;;4925991;28;20559;-83
2023/11/13 02:40:47;;;;;;;0.20;0.00;;;;;;;;;;4924435;29;20453;-83
2023/11/13 02:43:13;;;;;;;0.20;0.10;;;;;;;;;;4925746;28;20500;-83
2023/11/13 02:45:40;;;;;;;0.55;0.22;;;;;;;;;;4922427;29;20043;-84
2023/11/13 02:48:06;;;;;;;0.20;0.00;;;;;;;;;;4923981;28;20039;-83
2023/11/13 02:50:32;;;;;;;1.02;0.55;;;;;;;;;;4940371;28;20535;-83
2023/11/13 02:52:58;;;;;;;0.20;0.10;;;;;;;;;;4921634;29;20408;-84
2023/11/13 02:55:25;;;;;;;0.20;0.10;;;;;;;;;;4925995;29;20138;-84
2023/11/13 02:57:52;;;;;;;0.30;0.20;;;;;;;;;;4927004;29;20043;-85
2023/11/13 03:00:19;;;;;;;0.25;0.20;;;;;;;;;;4916916;28;20042;-85
2023/11/13 03:02:48;;;;;;;0.30;0.30;;;;;;;;;;4925657;29;20042;-84
2023/11/13 03:05:16;;;;;;;0.47;0.47;;;;;;;;;;4922929;28;20050;-85
2023/11/13 03:07:43;;;;;;;0.30;0.20;;;;;;;;;;4924030;29;20520;-85
2023/11/13 03:10:09;;;;;;;0.20;0.10;;;;;;;;;;4926016;28;20050;-84
2023/11/13 03:12:37;;;;;;;0.20;0.10;;;;;;;;;;4932540;28;20047;-83
2023/11/13 03:15:06;;;;;;;0.20;0.17;;;;;;;;;;4924296;28;20050;-84
2023/11/13 03:17:32;;;;;;;0.20;0.00;;;;;;;;;;4926016;29;20155;-83
2023/11/13 03:19:58;;;;;;;0.45;0.45;;;;;;;;;;4920894;29;20135;-83
2023/11/13 03:22:24;;;;;;;0.20;0.10;;;;;;;;;;4918475;28;20155;-83
2023/11/13 03:24:51;;;;;;;0.20;0.15;;;;;;;;;;4925007;29;20044;-83
2023/11/13 03:27:17;;;;;;;0.30;0.25;;;;;;;;;;4925953;28;20043;-84
2023/11/13 03:29:42;;;;;;;0.20;0.10;;;;;;;;;;4921868;29;20109;-83
2023/11/13 03:32:09;;;;;;;0.20;0.10;;;;;;;;;;4923091;28;22029;-83
2023/11/13 03:34:35;;;;;;;0.38;0.20;;;;;;;;;;4936037;28;20047;-83
2023/11/13 03:37:01;;;;;;;0.20;0.10;;;;;;;;;;4922466;29;20031;-84
2023/11/13 03:39:26;;;;;;;0.40;0.32;;;;;;;;;;4923556;28;20035;-84
2023/11/13 03:41:52;;;;;;;0.20;0.10;;;;;;;;;;4936316;28;20069;-84
2023/11/13 03:44:19;;;;;;;0.20;0.20;;;;;;;;;;4915163;28;20044;-83
2023/11/13 03:46:45;;;;;;;0.38;0.32;;;;;;;;;;4921145;29;20047;-84
2023/11/13 03:49:11;;;;;;;0.47;0.47;;;;;;;;;;4937553;28;20051;-84
2023/11/13 03:51:37;;;;;;;0.20;0.00;;;;;;;;;;4922951;29;20035;-83
2023/11/13 03:54:03;;;;;;;0.20;0.10;;;;;;;;;;4921686;29;20043;-83
2023/11/13 03:56:29;;;;;;;0.22;0.15;;;;;;;;;;4934081;28;20205;-84
2023/11/13 03:58:55;;;;;;;0.20;0.00;;;;;;;;;;4940395;28;20563;-84
2023/11/13 04:01:21;;;;;;;0.20;0.00;;;;;;;;;;4922004;28;20400;-83
2023/11/13 04:03:48;;;;;;;0.80;0.43;;;;;;;;;;4923833;29;20054;-84
2023/11/13 04:06:14;;;;;;;0.20;0.00;;;;;;;;;;4947981;28;20039;-84
2023/11/13 04:08:40;;;;;;;0.20;0.10;;;;;;;;;;4928879;29;20035;-83
2023/11/13 04:11:07;;;;;;;0.20;0.10;;;;;;;;;;4921206;29;20044;-84
2023/11/13 04:13:34;;;;;;;0.20;0.10;;;;;;;;;;4931171;29;20043;-84
2023/11/13 04:16:02;;;;;;;0.20;0.10;;;;;;;;;;4924401;28;20062;-85
2023/11/13 04:18:28;;;;;;;0.20;0.00;;;;;;;;;;4921313;28;20439;-84
2023/11/13 04:20:55;;;;;;;0.20;0.00;;;;;;;;;;4928224;29;20509;-83
2023/11/13 04:23:21;;;;;;;0.20;0.10;;;;;;;;;;4921647;28;20043;-84
2023/11/13 04:25:48;;;;;;;0.20;0.10;;;;;;;;;;4927097;29;20044;-83
2023/11/13 04:28:14;;;;;;;0.35;0.30;;;;;;;;;;4927117;28;20039;-84
2023/11/13 04:30:41;;;;;;;0.20;0.10;;;;;;;;;;4918716;29;20043;-83
2023/11/13 04:33:07;;;;;;;0.30;0.22;;;;;;;;;;4924339;29;20054;-83
2023/11/13 04:35:33;;;;;;;0.20;0.10;;;;;;;;;;4936083;28;20693;-83
2023/11/13 04:37:59;;;;;;;0.20;0.10;;;;;;;;;;4938090;28;20055;-84
2023/11/13 04:40:26;;;;;;;0.25;0.22;;;;;;;;;;4923799;28;20079;-84
2023/11/13 04:42:52;;;;;;;0.20;0.05;;;;;;;;;;4928721;29;20408;-84
2023/11/13 04:45:18;;;;;;;0.20;0.10;;;;;;;;;;4942958;28;20047;-83
2023/11/13 04:47:44;;;;;;;0.40;0.30;;;;;;;;;;4929242;29;20047;-83
2023/11/13 04:50:10;;;;;;;0.35;0.30;;;;;;;;;;4922553;29;20043;-84
2023/11/13 04:52:36;;;;;;;0.30;0.30;;;;;;;;;;4928039;29;20039;-84
2023/11/13 04:55:02;;;;;;;0.45;0.45;;;;;;;;;;4924497;29;20392;-83
2023/11/13 04:57:28;;;;;;;0.20;0.00;;;;;;;;;;4938285;28;20543;-83
2023/11/13 04:59:54;;;;;;;1.55;0.57;;;;;;;;;;4923467;29;20470;-82
2023/11/13 05:02:20;;;;;;;0.20;0.10;;;;;;;;;;4922839;28;20428;-83
2023/11/13 05:04:47;;;;;;;0.20;0.00;;;;;;;;;;4936947;28;20046;-83
2023/11/13 05:07:13;;;;;;;0.20;0.10;;;;;;;;;;4927794;28;20047;-84
2023/11/13 05:09:39;;;;;;;0.28;0.28;;;;;;;;;;4928570;29;21157;-83
2023/11/13 05:12:05;;;;;;;0.20;0.00;;;;;;;;;;4926000;29;21592;-84
2023/11/13 05:14:31;;;;;;;0.20;0.10;;;;;;;;;;4941952;28;20660;-83
2023/11/13 05:16:57;;;;;;;0.40;0.20;;;;;;;;;;4930025;29;20480;-83
2023/11/13 05:19:24;;;;;;;0.20;0.10;;;;;;;;;;4926442;28;20058;-83
2023/11/13 05:21:50;;;;;;;0.20;0.00;;;;;;;;;;4944790;28;20047;-83
2023/11/13 05:24:16;;;;;;;0.43;0.20;;;;;;;;;;4941936;28;20039;-84
2023/11/13 05:26:42;;;;;;;0.57;0.57;;;;;;;;;;4938096;28;20122;-84
2023/11/13 05:29:08;;;;;;;0.20;0.17;;;;;;;;;;4941539;28;20492;-84
2023/11/13 05:31:37;;;;;;;0.20;0.00;;;;;;;;;;4922000;28;20047;-84
2023/11/13 05:34:03;;;;;;;0.20;0.10;;;;;;;;;;4928488;29;20075;-82
2023/11/13 05:36:29;;;;;;;0.20;0.10;;;;;;;;;;4925100;28;20049;-84
2023/11/13 05:38:56;;;;;;;0.20;0.00;;;;;;;;;;4941592;28;20047;-84
2023/11/13 05:41:25;;;;;;;0.20;0.10;;;;;;;;;;4930186;28;20043;-84
2023/11/13 05:43:59;;;;;;;0.20;0.10;;;;;;;;;;4940873;28;20039;-84
2023/11/13 05:46:25;;;;;;;0.20;0.10;;;;;;;;;;4922935;28;20674;-84
2023/11/13 05:48:51;;;;;;;0.80;0.43;;;;;;;;;;4932099;29;20043;-84
2023/11/13 05:51:18;;;;;;;0.20;0.00;;;;;;;;;;4932684;28;20116;-84
2023/11/13 05:53:45;;;;;;;0.60;0.32;;;;;;;;;;4929541;29;20039;-84
2023/11/13 05:56:11;;;;;;;1.10;0.35;;;;;;;;;;4930477;29;20130;-85
2023/11/13 05:58:37;;;;;;;0.20;0.05;;;;;;;;;;4927350;28;20043;-84
2023/11/13 06:01:08;;;;;;;0.20;0.10;;;;;;;;;;4928789;29;20139;-84
2023/11/13 06:03:34;;;;;;;0.20;0.10;;;;;;;;;;4931956;28;20055;-84
2023/11/13 06:06:00;;;;;;;0.20;0.00;;;;;;;;;;4923651;29;20093;-85
2023/11/13 06:08:26;;;;;;;0.20;0.00;;;;;;;;;;4939429;28;20505;-84
2023/11/13 06:10:52;;;;;;;0.20;0.10;;;;;;;;;;4942389;28;20528;-84
2023/11/13 06:13:18;;;;;;;0.20;0.10;;;;;;;;;;4938567;28;20039;-83
2023/11/13 06:15:45;;;;;;;0.20;0.10;;;;;;;;;;4929767;29;20039;-83
2023/11/13 06:18:11;;;;;;;0.20;0.10;;;;;;;;;;4932861;28;20039;-82
2023/11/13 06:20:37;;;;;;;0.20;0.10;;;;;;;;;;4924278;28;20674;-86
2023/11/13 06:23:03;;;;;;;0.20;0.10;;;;;;;;;;4944830;28;20050;-85
2023/11/13 06:25:29;;;;;;;0.20;0.10;;;;;;;;;;4946530;28;20043;-86
2023/11/13 06:27:56;;;;;;;0.57;0.57;;;;;;;;;;4927868;29;20130;-87
2023/11/13 06:30:23;;;;;;;0.35;0.35;;;;;;;;;;4921381;28;20055;-86
2023/11/13 06:32:49;;;;;;;0.30;0.20;;;;;;;;;;4945566;28;20412;-86
2023/11/13 06:35:19;;;;;;;0.20;0.10;;;;;;;;;;4937735;28;20042;-86
2023/11/13 06:37:45;;;;;;;0.20;0.10;;;;;;;;;;4925764;28;20047;-85
2023/11/13 06:40:16;;;;;;;0.63;0.47;;;;;;;;;;4941185;28;20074;-87
2023/11/13 06:42:45;;;;;;;0.65;0.65;;;;;;;;;;4942782;28;20668;-86
2023/11/13 06:45:14;;;;;;;0.50;0.28;;;;;;;;;;4935470;28;20133;-86
2023/11/13 06:47:40;;;;;;;0.20;0.00;;;;;;;;;;4927487;28;20045;-86
2023/11/13 06:50:10;;;;;;;0.20;0.10;;;;;;;;;;4925018;29;20678;-87
2023/11/13 06:52:56;;;;;;;0.20;0.10;;;;;;;;;;4931531;28;20496;-87
2023/11/13 06:55:25;;;;;;;0.20;0.10;;;;;;;;;;4941546;28;20552;-86
2023/11/13 06:57:54;;;;;;;0.20;0.05;;;;;;;;;;4930419;29;20083;-86
2023/11/13 07:00:23;;;;;;;2.03;1.35;;;;;;;;;;4939826;28;20044;-86
2023/11/13 07:02:51;;;;;;;0.20;0.00;;;;;;;;;;4928446;29;20050;-86
2023/11/13 07:05:17;;;;;;;0.20;0.08;;;;;;;;;;4941690;28;20039;-86
2023/11/13 07:07:50;;;;;;;0.20;0.10;;;;;;;;;;4931977;28;20075;-86
2023/11/13 07:10:21;;;;;;;0.20;0.00;;;;;;;;;;4925492;28;20489;-87
2023/11/13 07:12:49;;;;;;;0.63;0.40;;;;;;;;;;4926110;28;20043;-87
2023/11/13 07:15:16;;;;;;;0.30;0.30;;;;;;;;;;4926627;29;20042;-86
2023/11/13 07:17:44;;;;;;;0.20;0.00;;;;;;;;;;4925623;28;20048;-85
2023/11/13 07:20:13;;;;;;;0.38;0.30;;;;;;;;;;4925925;28;20046;-86
2023/11/13 07:22:43;;;;;;;0.20;0.10;;;;;;;;;;4927313;28;20538;-86
2023/11/13 07:25:12;;;;;;;0.47;0.32;;;;;;;;;;4924133;29;20051;-86
2023/11/13 07:27:38;;;;;;;0.45;0.30;;;;;;;;;;4940029;28;20039;-86
2023/11/13 07:30:05;;;;;;;0.47;0.47;;;;;;;;;;4943674;28;20050;-86
2023/11/13 07:32:31;;;;;;;0.20;0.10;;;;;;;;;;4927895;28;20506;-85
2023/11/13 07:34:57;;;;;;;0.40;0.30;;;;;;;;;;4930636;29;20067;-86
2023/11/13 07:37:23;;;;;;;0.38;0.30;;;;;;;;;;4927135;28;20090;-86
2023/11/13 07:39:51;;;;;;;0.20;0.00;;;;;;;;;;4946130;28;20043;-86
2023/11/13 07:42:18;;;;;;;0.20;0.10;;;;;;;;;;4930957;29;20061;-87
2023/11/13 07:44:49;;;;;;;0.20;0.10;;;;;;;;;;4931675;28;20047;-84
2023/11/13 07:47:16;;;;;;;1.20;0.40;;;;;;;;;;4929062;28;20070;-85
2023/11/13 07:49:45;;;;;;;0.20;0.10;;;;;;;;;;4942958;28;20067;-86
2023/11/13 07:52:12;;;;;;;0.20;0.10;;;;;;;;;;4928038;28;20035;-88
2023/11/13 07:54:39;;;;;;;0.20;0.10;;;;;;;;;;4933414;28;20078;-84
2023/11/13 07:57:05;;;;;;;0.20;0.10;;;;;;;;;;4929767;29;20383;-86
2023/11/13 07:59:31;;;;;;;0.52;0.35;;;;;;;;;;4930491;28;20130;-84
2023/11/13 08:01:57;;;;;;;0.20;0.10;;;;;;;;;;4947022;28;20043;-86
2023/11/13 08:04:24;;;;;;;0.20;0.10;;;;;;;;;;4939411;28;20558;-87
2023/11/13 08:06:50;;;;;;;0.20;0.10;;;;;;;;;;4930541;28;20046;-85
2023/11/13 08:09:18;;;;;;;0.30;0.30;;;;;;;;;;4945303;28;20051;-84
2023/11/13 08:11:45;;;;;;;0.20;0.10;;;;;;;;;;4938409;28;20086;-86
2023/11/13 08:14:13;;;;;;;0.20;0.10;;;;;;;;;;4943835;28;20107;-85
2023/11/13 08:16:39;;;;;;;0.20;0.10;;;;;;;;;;4943287;28;20047;-85
2023/11/13 08:19:07;;;;;;;0.20;0.10;;;;;;;;;;4931637;29;20035;-86
2023/11/13 08:21:33;;;;;;;0.20;0.10;;;;;;;;;;4932702;28;20389;-84
2023/11/13 08:24:00;;;;;;;0.20;0.20;;;;;;;;;;4930934;29;20035;-86
2023/11/13 08:26:27;;;;;;;0.20;0.08;;;;;;;;;;4926286;29;20071;-86
2023/11/13 08:28:57;;;;;;;0.32;0.30;;;;;;;;;;4941084;28;20054;-85
2023/11/13 08:31:25;;;;;;;1.58;0.65;;;;;;;;;;4929244;29;20043;-83
2023/11/13 08:33:51;;;;;;;0.20;0.00;;;;;;;;;;4934381;28;20043;-87
2023/11/13 08:36:28;;;;;;;0.20;0.10;;;;;;;;;;4932530;29;20408;-84
2023/11/13 08:38:55;;;;;;;0.20;0.10;;;;;;;;;;4941533;28;20163;-86
2023/11/13 08:41:24;;;;;;;0.20;0.10;;;;;;;;;;4945559;28;20039;-86
2023/11/13 08:43:53;;;;;;;0.30;0.30;;;;;;;;;;4931313;28;20043;-86
2023/11/13 08:46:20;;;;;;;0.20;0.00;;;;;;;;;;4917991;28;20445;-85
2023/11/13 08:48:46;;;;;;;0.20;0.00;;;;;;;;;;4930264;28;20057;-82
2023/11/13 08:51:12;;;;;;;0.20;0.10;;;;;;;;;;4944452;28;20765;-84
2023/11/13 08:53:39;;;;;;;0.20;0.10;;;;;;;;;;4941400;28;20040;-86
2023/11/13 08:56:08;;;;;;;0.20;0.10;;;;;;;;;;4940197;28;20032;-89
2023/11/13 08:58:36;;;;;;;0.20;0.10;;;;;;;;;;4929319;28;20547;-85
2023/11/13 09:01:07;;;;;;;0.40;0.35;;;;;;;;;;4944254;28;20048;-86
2023/11/13 09:03:33;;;;;;;0.20;0.10;;;;;;;;;;4931672;29;20039;-86
2023/11/13 09:05:59;;;;;;;0.20;0.10;;;;;;;;;;4928974;28;20420;-87
2023/11/13 09:08:25;;;;;;;0.20;0.10;;;;;;;;;;4941673;28;20520;-85
2023/11/13 09:10:51;;;;;;;0.20;0.10;;;;;;;;;;4940184;28;20075;-86
2023/11/13 09:13:17;;;;;;;0.20;0.03;;;;;;;;;;4931134;29;20417;-88
2023/11/13 09:15:44;;;;;;;0.20;0.10;;;;;;;;;;4925402;28;20059;-86
2023/11/13 09:18:17;;;;;;;0.20;0.10;;;;;;;;;;4938953;28;20146;-86
2023/11/13 09:20:44;;;;;;;0.20;0.05;;;;;;;;;;4932303;28;20460;-86
2023/11/13 09:23:10;;;;;;;0.20;0.00;;;;;;;;;;4933665;29;20179;-85
2023/11/13 09:25:37;;;;;;;0.20;0.00;;;;;;;;;;4940870;28;20502;-86
2023/11/13 09:28:07;;;;;;;0.20;0.00;;;;;;;;;;4928346;29;20043;-86
2023/11/13 09:30:34;;;;;;;0.20;0.10;;;;;;;;;;4929632;29;20102;-85
2023/11/13 09:33:01;;;;;;;0.20;0.05;;;;;;;;;;4944724;28;20039;-83
2023/11/13 09:35:29;;;;;;;0.20;0.10;;;;;;;;;;4940277;28;20432;-87
2023/11/13 09:37:56;;;;;;;0.20;0.13;;;;;;;;;;4930131;28;20043;-87
2023/11/13 09:40:26;;;;;;;0.20;0.10;;;;;;;;;;4937088;28;20043;-85
2023/11/13 09:42:53;;;;;;;0.20;0.10;;;;;;;;;;4942735;28;20419;-86
2023/11/13 09:45:22;;;;;;;0.20;0.00;;;;;;;;;;4944278;28;20416;-86
2023/11/13 09:47:50;;;;;;;0.88;0.15;;;;;;;;;;4927768;28;20530;-85
2023/11/13 09:50:18;;;;;;;0.20;0.10;;;;;;;;;;4931995;29;20050;-86
2023/11/13 09:52:46;;;;;;;0.20;0.10;;;;;;;;;;4941582;28;20416;-85
2023/11/13 09:55:28;;;;;;;0.20;0.10;;;;;;;;;;4938069;28;20036;-88
2023/11/13 09:57:55;;;;;;;0.57;0.22;;;;;;;;;;4932066;28;20049;-87
2023/11/13 10:00:24;;;;;;;0.20;0.10;;;;;;;;;;4947768;28;20557;-85
2023/11/13 10:02:52;;;;;;;0.20;0.10;;;;;;;;;;4934995;28;20054;-86
2023/11/13 10:05:19;;;;;;;0.20;0.00;;;;;;;;;;4941294;28;20126;-85
2023/11/13 10:07:52;;;;;;;0.20;0.10;;;;;;;;;;4921150;28;20520;-86
2023/11/13 10:10:21;;;;;;;0.20;0.00;;;;;;;;;;4926388;29;20191;-86
2023/11/13 10:12:47;;;;;;;0.20;0.10;;;;;;;;;;4942011;28;20468;-87
2023/11/13 10:15:13;;;;;;;0.20;0.10;;;;;;;;;;4943204;28;20416;-85
2023/11/13 10:17:44;;;;;;;0.20;0.08;;;;;;;;;;4942864;28;20035;-86
2023/11/13 10:20:17;;;;;;;0.20;0.10;;;;;;;;;;4930424;29;20050;-87
2023/11/13 10:23:04;;;;;;;0.20;0.20;;;;;;;;;;4928094;28;20047;-88
2023/11/13 10:25:50;;;;;;;0.20;0.10;;;;;;;;;;4939330;28;20036;-88
2023/11/13 10:28:19;;;;;;;1.38;0.80;;;;;;;;;;4938885;28;20413;-86
2023/11/13 10:30:51;;;;;;;0.20;0.10;;;;;;;;;;4930780;28;20079;-84
2023/11/13 10:33:18;;;;;;;0.20;0.00;;;;;;;;;;4941811;28;20495;-86
2023/11/13 10:35:50;;;;;;;0.20;0.10;;;;;;;;;;4935489;29;20094;-86
2023/11/13 10:38:16;;;;;;;;;;;;;;;;;;4921405;29;20036;-87
2023/11/13 10:41:03;;;;;;;0.20;0.08;;;;;;;;;;4927313;29;19923;-86
2023/11/13 10:43:30;;;;;;;0.20;0.00;;;;;;;;;;4933167;28;20050;-86
2023/11/13 10:45:59;;;;;;;0.20;0.10;;;;;;;;;;4930402;28;20044;-86
2023/11/13 10:48:38;;;;;;;0.20;0.10;;;;;;;;;;4923566;29;20043;-86
2023/11/13 10:51:05;;;;;;;0.20;0.08;;;;;;;;;;4923099;28;20059;-86
2023/11/13 10:53:37;;;;;;;0.20;0.10;;;;;;;;;;4928643;29;20118;-87
2023/11/13 10:56:06;;;;;;;0.20;0.10;;;;;;;;;;4923836;28;20046;-87
2023/11/13 10:58:32;;;;;;;0.20;0.10;;;;;;;;;;4924622;28;20035;-88
2023/11/13 11:01:12;;;;;;;0.20;0.10;;;;;;;;;;4942491;28;20039;-86
2023/11/13 11:03:50;;;;;;;0.20;0.10;;;;;;;;;;4931117;29;20061;-87
2023/11/13 11:06:22;;;;;;;0.20;0.10;;;;;;;;;;4927191;28;20082;-86
2023/11/13 11:08:48;;;;;;;;;;;;;;;;;;4933591;28;20043;-86
2023/11/13 11:11:14;;;;;;;0.28;0.10;;;;;;;;;;4930238;28;19927;-87
2023/11/13 11:13:56;;;;;;;0.20;0.00;;;;;;;;;;4924641;28;20400;-87
2023/11/13 11:16:51;;;;;;;;;;;;;;;;;;;;;
2023/11/13 11:19:41;;;;;;;0.20;0.10;;;;;;;;;;4954674;28;20075;-86
2023/11/13 11:22:29;;;;;;;1.10;1.00;;;;;;;;;;4930491;28;20043;-87
2023/11/13 11:25:11;;;;;;;0.20;0.10;;;;;;;;;;4927897;28;20448;-85
2023/11/13 11:27:41;;;;;;;0.20;0.10;;;;;;;;;;4938042;28;20229;-87
2023/11/13 11:30:22;;;;;;;0.20;0.10;;;;;;;;;;4929255;28;20052;-87
2023/11/13 11:33:09;;;;;;;0.20;0.00;;;;;;;;;;4941154;28;20138;-86
2023/11/13 11:35:45;;;;;;;0.20;0.00;;;;;;;;;;4924758;28;20500;-86
2023/11/13 11:38:27;;;;;;;0.68;0.32;;;;;;;;;;4925363;28;20058;-88
2023/11/13 11:40:59;;;;;;;0.20;0.10;;;;;;;;;;4931435;28;20074;-87
2023/11/13 11:43:35;;;;;;;0.20;0.00;;;;;;;;;;4934735;29;20047;-87
2023/11/13 11:46:03;;;;;;;0.20;0.00;;;;;;;;;;4938325;28;20921;-86
2023/11/13 11:48:41;;;;;;;0.20;0.10;;;;;;;;;;4920780;29;20516;-88
2023/11/13 11:51:15;;;;;;;0.20;0.00;;;;;;;;;;4927791;28;20051;-86
2023/11/13 11:53:57;;;;;;;0.20;0.10;;;;;;;;;;4934872;28;20103;-86
2023/11/13 11:57:03;;;;;;;0.20;0.10;;;;;;;;;;4929174;29;20035;-86
2023/11/13 11:59:47;;;;;;;0.20;0.03;;;;;;;;;;4922342;29;20075;-86
2023/11/13 12:02:23;;;;;;;0.20;0.08;;;;;;;;;;4924074;28;20408;-87
2023/11/13 12:04:49;;;;;;;0.20;0.00;;;;;;;;;;4935715;28;20043;-88
2023/11/13 12:07:18;;;;;;;0.20;0.00;;;;;;;;;;4931078;28;20451;-88
2023/11/13 12:09:47;;;;;;;0.20;0.03;;;;;;;;;;4924600;29;20058;-87
2023/11/13 12:12:24;;;;;;;0.20;0.10;;;;;;;;;;4930949;28;20432;-86
2023/11/13 12:14:54;;;;;;;0.20;0.10;;;;;;;;;;4927126;29;20131;-85
2023/11/13 12:17:25;;;;;;;0.20;0.10;;;;;;;;;;4929249;29;20050;-86
2023/11/13 12:19:54;;;;;;;0.20;0.10;;;;;;;;;;4927982;29;20429;-86
2023/11/13 12:22:22;;;;;;;0.20;0.00;;;;;;;;;;4928590;29;20047;-85
2023/11/13 12:24:48;;;;;;;0.28;0.28;;;;;;;;;;4935968;28;20744;-85
2023/11/13 12:27:14;;;;;;;0.20;0.10;;;;;;;;;;4928552;28;20051;-87
2023/11/13 12:29:43;;;;;;;0.20;0.10;;;;;;;;;;4948205;28;20051;-89
2023/11/13 12:32:10;;;;;;;0.20;0.00;;;;;;;;;;4932797;28;20511;-88
2023/11/13 12:34:39;;;;;;;0.20;0.17;;;;;;;;;;4929992;29;20126;-87
2023/11/13 12:37:07;;;;;;;0.20;0.10;;;;;;;;;;4930916;28;20039;-85
2023/11/13 12:39:33;;;;;;;0.20;0.10;;;;;;;;;;4930408;29;20182;-86
2023/11/13 12:42:11;;;;;;;;;;;;;;;;;;;;;
2023/11/13 12:44:38;;;;;;;0.20;0.05;;;;;;;;;;4944877;28;20048;-87
2023/11/13 12:47:09;;;;;;;0.28;0.05;;;;;;;;;;4934330;28;20047;-86
2023/11/13 12:49:35;;;;;;;0.20;0.00;;;;;;;;;;4930311;29;20050;-85
2023/11/13 12:52:15;;;;;;;0.88;0.80;;;;;;;;;;4947897;28;20433;-86
2023/11/13 12:54:43;;;;;;;0.20;0.00;;;;;;;;;;4947194;28;20071;-85
2023/11/13 12:57:13;;;;;;;0.20;0.00;;;;;;;;;;4932666;28;20107;-85
2023/11/13 12:59:39;;;;;;;0.20;0.10;;;;;;;;;;4934052;28;20038;-86
2023/11/13 13:02:05;;;;;;;0.20;0.10;;;;;;;;;;4933061;28;20415;-88
2023/11/13 13:04:33;;;;;;;0.20;0.10;;;;;;;;;;4930716;29;20044;-85
2023/11/13 13:06:59;;;;;;;0.20;0.10;;;;;;;;;;4948381;28;20423;-86
2023/11/13 13:09:25;;;;;;;0.20;0.10;;;;;;;;;;4931008;29;20079;-87
2023/11/13 13:11:59;;;;;;;0.20;0.00;;;;;;;;;;4932683;29;20043;-87
2023/11/13 13:14:26;;;;;;;0.20;0.10;;;;;;;;;;4932743;29;20587;-86
2023/11/13 13:16:56;;;;;;;0.55;0.20;;;;;;;;;;4935688;29;20114;-87
2023/11/13 13:19:37;;;;;;;0.20;0.00;;;;;;;;;;4928127;28;20155;-86
2023/11/13 13:22:05;;;;;;;0.20;0.10;;;;;;;;;;4930262;28;20062;-86
2023/11/13 13:24:32;;;;;;;0.20;0.20;;;;;;;;;;4933256;29;20047;-87
2023/11/13 13:27:11;;;;;;;0.20;0.00;;;;;;;;;;4937160;29;20098;-85
2023/11/13 13:29:49;;;;;;;0.20;0.00;;;;;;;;;;4927443;29;20051;-86
2023/11/13 13:32:28;;;;;;;0.20;0.00;;;;;;;;;;4934267;28;20043;-85
2023/11/13 13:34:54;;;;;;;0.20;0.20;;;;;;;;;;4929231;29;20131;-84
2023/11/13 13:37:27;;;;;;;0.20;0.10;;;;;;;;;;4933904;28;20075;-84
2023/11/13 13:39:55;;;;;;;0.20;0.00;;;;;;;;;;4934170;28;20050;-87
2023/11/13 13:42:33;;;;;;;0.20;0.10;;;;;;;;;;4933282;28;20050;-85
2023/11/13 13:44:59;;;;;;;0.20;0.00;;;;;;;;;;4926632;29;20137;-85
2023/11/13 13:47:25;;;;;;;0.20;0.00;;;;;;;;;;4928687;28;20058;-88
2023/11/13 13:50:03;;;;;;;0.20;0.10;;;;;;;;;;4923392;29;20039;-86
2023/11/13 13:52:30;;;;;;;0.30;0.22;;;;;;;;;;4928775;28;20594;-83
2023/11/13 13:55:05;;;;;;;0.20;0.00;;;;;;;;;;4945917;28;20675;-86
2023/11/13 13:57:32;;;;;;;0.20;0.00;;;;;;;;;;4931781;29;20046;-84
2023/11/13 13:59:58;;;;;;;0.20;0.00;;;;;;;;;;4931359;29;20519;-86
2023/11/13 14:02:26;;;;;;;0.20;0.05;;;;;;;;;;4948855;28;20586;-89
2023/11/13 14:05:08;;;;;;;0.20;0.00;;;;;;;;;;4931412;29;20508;-86
2023/11/13 14:07:34;;;;;;;0.23;0.23;;;;;;;;;;4930188;29;20047;-90
2023/11/13 14:10:00;;;;;;;0.20;0.10;;;;;;;;;;4945999;28;20080;-88
2023/11/13 14:12:29;;;;;;;0.20;0.10;;;;;;;;;;4927910;28;20101;-86
2023/11/13 14:14:55;;;;;;;0.20;0.10;;;;;;;;;;4930429;29;20459;-86
2023/11/13 14:17:36;;;;;;;0.20;0.10;;;;;;;;;;4928676;28;20073;-86
2023/11/13 14:20:14;;;;;;;0.20;0.10;;;;;;;;;;4943199;28;20050;-87
2023/11/13 14:22:46;;;;;;;0.20;0.10;;;;;;;;;;4934642;29;20130;-87
2023/11/13 14:25:41;;;;;;;0.20;0.00;;;;;;;;;;4927979;28;20106;-87
2023/11/13 14:28:16;;;;;;;0.20;0.10;;;;;;;;;;4928465;28;20514;-85
2023/11/13 14:30:49;;;;;;;0.20;0.00;;;;;;;;;;4938811;28;20055;-87
2023/11/13 14:33:18;;;;;;;0.20;0.10;;;;;;;;;;4931667;28;20043;-88
2023/11/13 14:35:44;;;;;;;0.20;0.00;;;;;;;;;;4937098;29;20035;-85
2023/11/13 14:38:13;;;;;;;0.20;0.00;;;;;;;;;;4930895;28;20043;-88
2023/11/13 14:40:42;;;;;;;0.20;0.13;;;;;;;;;;4938183;28;20168;-88
2023/11/13 14:43:12;;;;;;;0.20;0.10;;;;;;;;;;4943070;28;20416;-87
2023/11/13 14:45:38;;;;;;;0.20;0.10;;;;;;;;;;4945960;28;20673;-85
2023/11/13 14:48:07;;;;;;;0.20;0.00;;;;;;;;;;4939147;28;20051;-88
2023/11/13 14:50:35;;;;;;;0.63;0.35;;;;;;;;;;4943693;28;20050;-86
2023/11/13 14:53:01;;;;;;;0.20;0.05;;;;;;;;;;4922244;29;20078;-87
2023/11/13 14:55:27;;;;;;;0.20;0.00;;;;;;;;;;4940187;28;20046;-87
2023/11/13 14:57:54;;;;;;;0.20;0.00;;;;;;;;;;4929991;29;20046;-87